Tropical Cyclones
[Index]
Season 2019-2020 Tropical Cyclone 202021 Track Map
Season 2019-2020 Summaries (Operational Data): [AU] [SIO] [SPAC] [SH]
<<- Previous TC | 2019-2020 Season | Next TC ->>

click for intensity scale information  Lat/long Grid: Show Hide

 Date Labels: Show Hide

Operational Tropical Cyclone Data

Name: 202021
Number: 2021

08 Mar 2020 18:00 UTC to 16 Mar 2020 18:00 UTC

    date/time    lat    long     hPa   cat  kts
2020-03-08 18   10.5   113.1    1004         15          
2020-03-09 00   10.6   113.2    1004         15          
2020-03-09 06   10.8   113.4    1004         15          
2020-03-09 12   11.2   113.6    1007         20          
2020-03-09 18   11.7   114.7    1005         20          
2020-03-10 00   12.3   115.5    1006         20          
2020-03-10 06   13.0   116.2    1005         20          
2020-03-10 12   13.9   116.8    1005         30          
2020-03-10 18   14.7   117.0    1003         30          
2020-03-11 00   15.5   117.0    1005         30          
2020-03-11 06   16.4   116.9    1003    1    35          
2020-03-11 12   17.6   116.6    1005    1    35          
2020-03-11 18   18.4   115.9    1005    1    35          
2020-03-12 00   19.0   115.2    1006         30          
2020-03-12 06   19.8   115.0    1004         30          
2020-03-12 12   21.0   114.9    1004         30          
2020-03-12 18   22.0   114.7    1006         25          
2020-03-13 00   22.8   114.5    1006         25          
2020-03-13 06   23.8   114.5    1004         25          
2020-03-13 12   24.9   114.8    1004         25          
2020-03-13 18   25.9   115.1    1004         25          
2020-03-14 00   27.0   114.8    1004         25          
2020-03-14 06   28.3   115.5    1007         25          
2020-03-14 12   30.0   116.0    1008         20          
2020-03-14 18   34.1   115.5    1006                     
2020-03-15 00   36.4   115.0    1005                     
2020-03-15 06   37.8   115.8    1003                     
2020-03-15 12   40.1   118.0    1001                     
2020-03-15 18   41.9   119.9     999                     
2020-03-16 00   43.5   121.3     999                     
2020-03-16 06   45.3   124.9     996                     
2020-03-16 12   47.3   127.3     996                     
2020-03-16 18   50.4   131.5     989                     
Winds are 10-min average.

Tropical cyclone tracks developed by Michael Bath using operational warnings and advisories and Google Maps.


Document: tropical_cyclone_202021.htm
Updated: 17 June 2020
[Australian Severe Weather index] [Copyright Notice] [Email Contacts] [Search This Site] [Privacy Policy]


Main Index Home Page Stock Weather Photos Extreme Storms Discussion Storm News and Storm Chasing Reports Tropical Cyclones / Hurricanes / Typhoons Weather Data and Links Wild Fires / Bushfires Weather Observation Techniques Weather Picture Catalogue Tornado Pictures and Reports Stock Video Footage and DVDs for sale